createdAt,value
2017-12-20T00:00:13.450Z,10.77
2017-12-20T00:02:41.817Z,9.73
2017-12-20T00:05:10.251Z,9.05
2017-12-20T00:07:38.627Z,9.63
2017-12-20T00:10:06.948Z,9.73
2017-12-20T00:12:35.282Z,8.75
2017-12-20T00:15:03.618Z,8.30
2017-12-20T00:17:32.015Z,9.05
2017-12-20T00:20:00.509Z,8.32
2017-12-20T00:22:28.881Z,9.35
2017-12-20T00:24:57.260Z,7.35
2017-12-20T00:27:25.638Z,8.23
2017-12-20T00:29:53.963Z,8.10
2017-12-20T00:32:22.303Z,8.05
2017-12-20T00:34:50.341Z,7.03
2017-12-20T00:37:18.402Z,7.25
2017-12-20T00:39:46.438Z,6.97
2017-12-20T00:42:14.879Z,6.70
2017-12-20T00:44:43.198Z,7.32
2017-12-20T00:47:11.538Z,7.10
2017-12-20T00:49:39.854Z,6.07
2017-12-20T00:52:08.198Z,7.05
2017-12-20T00:54:36.515Z,6.97
2017-12-20T00:57:04.853Z,7.18
2017-12-20T00:59:33.194Z,6.97
2017-12-20T01:02:01.515Z,6.93
2017-12-20T01:04:29.921Z,7.30
2017-12-20T01:06:58.236Z,6.20
2017-12-20T01:09:26.577Z,6.37
2017-12-20T01:11:54.900Z,7.53
2017-12-20T01:14:23.238Z,5.90
2017-12-20T01:16:51.558Z,7.15
2017-12-20T01:19:19.919Z,9.85
2017-12-20T01:21:48.238Z,6.18
2017-12-20T01:24:16.583Z,6.18
2017-12-20T01:26:44.894Z,5.90
2017-12-20T01:29:13.234Z,6.85
2017-12-20T01:31:41.554Z,6.82
2017-12-20T01:34:09.977Z,6.25
2017-12-20T01:36:38.294Z,6.20
2017-12-20T01:39:06.738Z,6.40
2017-12-20T01:41:35.150Z,6.65
2017-12-20T01:44:03.469Z,6.65
2017-12-20T01:46:31.865Z,6.75
2017-12-20T01:49:00.238Z,6.12
2017-12-20T01:51:28.562Z,7.80
2017-12-20T01:53:56.902Z,6.80
2017-12-20T01:56:25.274Z,8.05
2017-12-20T01:58:53.610Z,6.70
2017-12-20T02:01:21.936Z,6.60
2017-12-20T02:03:50.322Z,7.85
2017-12-20T02:06:18.642Z,7.30
2017-12-20T02:08:46.982Z,7.47
2017-12-20T02:11:15.334Z,6.62
2017-12-20T02:13:43.708Z,6.85
2017-12-20T02:16:12.024Z,7.57
2017-12-20T02:18:40.422Z,7.62
2017-12-20T02:21:08.772Z,7.55
2017-12-20T02:23:37.115Z,6.95
2017-12-20T02:26:05.430Z,7.43
2017-12-20T02:28:33.771Z,5.75
2017-12-20T02:31:02.143Z,6.20
2017-12-20T02:33:31.364Z,6.20
2017-12-20T02:35:59.728Z,6.07
2017-12-20T02:38:37.922Z,5.43
2017-12-20T02:41:06.247Z,5.55
2017-12-20T02:43:34.588Z,5.37
2017-12-20T02:46:02.923Z,5.40
2017-12-20T02:48:31.261Z,5.03
2017-12-20T02:50:59.602Z,4.65
2017-12-20T02:53:27.938Z,4.80
2017-12-20T02:55:56.399Z,4.40
2017-12-20T02:58:24.737Z,3.72
2017-12-20T03:00:53.114Z,3.72
2017-12-20T03:03:21.446Z,3.90
2017-12-20T03:05:49.777Z,4.22
2017-12-20T03:08:18.095Z,3.65
2017-12-20T03:10:46.421Z,3.53
2017-12-20T03:13:14.770Z,3.62
2017-12-20T03:15:43.103Z,3.12
2017-12-20T03:18:11.424Z,3.78
2017-12-20T03:20:39.754Z,3.87
2017-12-20T03:23:08.104Z,4.00
2017-12-20T03:25:36.510Z,3.75
2017-12-20T03:28:04.854Z,3.30
2017-12-20T03:30:33.191Z,3.12
2017-12-20T03:33:01.535Z,4.07
2017-12-20T03:35:29.925Z,3.25
2017-12-20T03:37:58.231Z,3.60
2017-12-20T03:40:26.643Z,3.33
2017-12-20T03:42:55.018Z,3.83
2017-12-20T03:45:23.354Z,3.30
2017-12-20T03:47:51.674Z,3.40
2017-12-20T03:50:20.006Z,3.58
2017-12-20T03:52:48.318Z,4.30
2017-12-20T03:55:16.698Z,4.50
2017-12-20T03:57:45.006Z,3.60
2017-12-20T04:00:13.346Z,4.53
2017-12-20T04:02:41.807Z,4.82
2017-12-20T04:05:10.086Z,5.05
2017-12-20T04:07:38.416Z,5.18
2017-12-20T04:10:06.815Z,6.20
2017-12-20T04:12:35.110Z,5.18
2017-12-20T04:15:03.529Z,5.43
2017-12-20T04:17:31.890Z,5.28
2017-12-20T04:20:00.266Z,4.45
2017-12-20T04:22:28.624Z,5.28
2017-12-20T04:24:57.027Z,4.65
2017-12-20T04:27:25.338Z,5.10
2017-12-20T04:29:53.774Z,4.35
2017-12-20T04:32:22.087Z,4.53
2017-12-20T04:34:50.431Z,4.80
2017-12-20T04:37:18.803Z,4.80
2017-12-20T04:39:47.186Z,4.43
2017-12-20T04:42:15.490Z,4.30
2017-12-20T04:44:43.839Z,5.15
2017-12-20T04:47:12.142Z,4.90
2017-12-20T04:49:40.473Z,4.32
2017-12-20T04:52:08.794Z,4.70
2017-12-20T04:54:37.142Z,4.72
2017-12-20T04:57:05.459Z,4.32
2017-12-20T04:59:33.889Z,4.35
2017-12-20T05:02:02.197Z,3.60
2017-12-20T05:04:30.534Z,3.80
2017-12-20T05:06:58.846Z,4.30
2017-12-20T05:09:27.193Z,3.90
2017-12-20T05:11:55.610Z,4.05
2017-12-20T05:14:23.924Z,3.85
2017-12-20T05:16:52.364Z,4.03
2017-12-20T05:19:20.637Z,3.62
2017-12-20T05:21:49.104Z,3.92
2017-12-20T05:24:17.504Z,4.28
2017-12-20T05:26:45.939Z,3.85
2017-12-20T05:29:14.322Z,3.85
2017-12-20T05:31:42.676Z,4.15
2017-12-20T05:34:10.986Z,4.57
2017-12-20T05:36:39.326Z,3.87
2017-12-20T05:39:07.662Z,4.10
2017-12-20T05:41:36.103Z,3.55
2017-12-20T05:44:04.411Z,3.60
2017-12-20T05:46:32.746Z,4.25
2017-12-20T05:49:01.130Z,4.15
2017-12-20T05:51:29.492Z,3.85
2017-12-20T05:53:57.802Z,4.10
2017-12-20T05:56:26.142Z,3.95
2017-12-20T05:58:54.470Z,3.85
2017-12-20T06:01:22.874Z,3.50
2017-12-20T06:03:51.196Z,3.95
2017-12-20T06:06:19.531Z,4.10
2017-12-20T06:08:47.919Z,4.85
2017-12-20T06:11:16.289Z,5.03
2017-12-20T06:13:44.643Z,5.18
2017-12-20T06:16:13.078Z,6.05
2017-12-20T06:18:41.459Z,6.87
2017-12-20T06:21:09.840Z,5.35
2017-12-20T06:23:38.212Z,5.10
2017-12-20T06:26:06.590Z,6.20
2017-12-20T06:28:34.915Z,5.87
2017-12-20T06:31:03.327Z,6.40
2017-12-20T06:33:31.681Z,6.10
2017-12-20T06:36:00.078Z,7.18
2017-12-20T06:38:28.489Z,5.40
2017-12-20T06:40:56.851Z,5.70
2017-12-20T06:43:25.217Z,6.55
2017-12-20T06:45:53.688Z,6.90
2017-12-20T06:48:22.061Z,7.57
2017-12-20T06:50:50.470Z,6.68
2017-12-20T06:53:18.815Z,6.50
2017-12-20T06:55:47.163Z,7.15
2017-12-20T06:58:15.487Z,6.62
2017-12-20T07:00:43.830Z,6.65
2017-12-20T07:03:12.158Z,6.12
2017-12-20T07:05:40.508Z,5.60
2017-12-20T07:08:08.835Z,5.60
2017-12-20T07:10:37.236Z,6.55
2017-12-20T07:13:05.589Z,6.60
2017-12-20T07:15:33.923Z,8.27
2017-12-20T07:18:02.276Z,9.07
2017-12-20T07:20:30.622Z,8.88
2017-12-20T07:22:59.020Z,7.43
2017-12-20T07:25:27.343Z,7.18
2017-12-20T07:27:55.694Z,6.85
2017-12-20T07:30:24.032Z,5.20
2017-12-20T07:32:52.371Z,5.03
2017-12-20T07:35:20.698Z,4.55
2017-12-20T07:37:49.039Z,3.97
2017-12-20T07:40:17.361Z,4.40
2017-12-20T07:42:45.703Z,4.85
2017-12-20T07:45:14.022Z,5.10
2017-12-20T07:47:42.360Z,6.25
2017-12-20T07:50:10.686Z,4.75
2017-12-20T07:52:39.027Z,4.80
2017-12-20T07:55:07.343Z,5.10
2017-12-20T07:57:35.683Z,4.50
2017-12-20T08:00:04.020Z,4.97
2017-12-20T08:02:32.366Z,4.43
2017-12-20T08:05:00.702Z,4.72
2017-12-20T08:07:29.059Z,4.77
2017-12-20T08:09:57.374Z,4.28
2017-12-20T08:12:25.718Z,4.18
2017-12-20T08:14:54.530Z,4.72
2017-12-20T08:17:22.874Z,3.70
2017-12-20T08:19:51.194Z,4.97
2017-12-20T08:22:19.539Z,4.03
2017-12-20T08:24:47.853Z,4.43
2017-12-20T08:27:16.199Z,4.55
2017-12-20T08:29:44.538Z,4.15
2017-12-20T08:32:12.895Z,4.97
2017-12-20T08:34:41.319Z,4.22
2017-12-20T08:37:09.662Z,5.30
2017-12-20T08:39:37.986Z,4.57
2017-12-20T08:42:06.330Z,4.15
2017-12-20T08:44:34.653Z,4.67
2017-12-20T08:47:02.999Z,3.90
2017-12-20T08:49:31.325Z,4.32
2017-12-20T08:51:59.966Z,4.50
2017-12-20T08:54:29.050Z,4.65
2017-12-20T08:56:57.390Z,4.40
2017-12-20T08:59:25.715Z,3.80
2017-12-20T09:01:54.077Z,4.45
2017-12-20T09:04:22.397Z,4.85
2017-12-20T09:06:50.744Z,4.50
2017-12-20T09:09:19.055Z,3.60
2017-12-20T09:11:47.420Z,3.97
2017-12-20T09:14:15.791Z,4.17
2017-12-20T09:16:44.466Z,3.10
2017-12-20T09:19:12.907Z,5.33
2017-12-20T09:21:41.284Z,3.57
2017-12-20T09:24:09.667Z,4.00
2017-12-20T09:26:38.046Z,3.83
2017-12-20T09:29:06.449Z,3.70
2017-12-20T09:31:34.844Z,4.17
2017-12-20T09:34:03.271Z,3.73
2017-12-20T09:36:31.717Z,4.47
2017-12-20T09:39:00.194Z,4.40
2017-12-20T09:41:28.571Z,4.60
2017-12-20T09:43:57.007Z,4.07
2017-12-20T09:46:25.387Z,5.40
2017-12-20T09:48:53.755Z,4.70
2017-12-20T09:51:22.285Z,5.62
2017-12-20T09:53:50.734Z,5.33
2017-12-20T09:56:19.094Z,5.37
2017-12-20T09:58:47.467Z,5.33
2017-12-20T10:01:16.137Z,5.20
2017-12-20T10:03:44.761Z,6.25
2017-12-20T10:06:14.773Z,6.53
2017-12-20T10:08:43.108Z,5.57
2017-12-20T10:11:11.443Z,6.20
2017-12-20T10:13:39.795Z,6.40
2017-12-20T10:16:08.123Z,7.23
2017-12-20T10:18:36.470Z,5.97
2017-12-20T10:21:04.786Z,6.15
2017-12-20T10:23:33.129Z,5.55
2017-12-20T10:26:01.453Z,5.53
2017-12-20T10:28:29.811Z,6.57
2017-12-20T10:30:58.135Z,5.50
2017-12-20T10:33:26.488Z,6.33
2017-12-20T10:35:54.804Z,6.90
2017-12-20T10:38:23.142Z,5.37
2017-12-20T10:40:51.475Z,7.03
2017-12-20T10:43:20.665Z,5.85
2017-12-20T10:45:48.989Z,5.60
2017-12-20T10:48:17.346Z,6.03
2017-12-20T10:50:45.671Z,7.10
2017-12-20T10:53:14.358Z,7.45
2017-12-20T10:55:42.684Z,6.15
2017-12-20T10:58:11.027Z,6.57
2017-12-20T11:00:39.350Z,6.40
2017-12-20T11:03:07.695Z,8.00
2017-12-20T11:05:36.022Z,7.30
2017-12-20T11:08:04.366Z,6.37
2017-12-20T11:10:32.690Z,7.13
2017-12-20T11:13:01.596Z,7.72
2017-12-20T11:15:29.910Z,6.93
2017-12-20T11:17:58.270Z,7.57
2017-12-20T11:20:26.589Z,7.27
2017-12-20T11:22:55.904Z,9.10
2017-12-20T11:25:24.255Z,7.28
2017-12-20T11:27:52.586Z,7.60
2017-12-20T11:30:20.935Z,8.90
2017-12-20T11:32:49.259Z,7.50
2017-12-20T11:35:17.602Z,8.80
2017-12-20T11:37:45.931Z,9.37
2017-12-20T11:40:14.269Z,7.30
2017-12-20T11:42:42.594Z,8.63
2017-12-20T11:45:10.954Z,7.87
2017-12-20T11:47:39.279Z,9.03
2017-12-20T11:50:07.622Z,10.83
2017-12-20T11:52:35.947Z,10.90
2017-12-20T11:55:04.302Z,8.53
2017-12-20T11:57:32.626Z,7.57
2017-12-20T12:00:00.991Z,7.50
2017-12-20T12:02:29.314Z,7.75
2017-12-20T12:04:57.678Z,9.40
2017-12-20T12:07:26.012Z,10.02
2017-12-20T12:09:54.381Z,9.20
2017-12-20T12:12:22.722Z,8.03
2017-12-20T12:14:51.070Z,7.23
2017-12-20T12:17:19.397Z,7.90
2017-12-20T12:19:47.753Z,7.37
2017-12-20T12:22:16.075Z,8.43
2017-12-20T12:24:44.422Z,8.30
2017-12-20T12:27:12.755Z,8.87
2017-12-20T12:29:51.989Z,9.10
2017-12-20T12:32:33.023Z,10.23
2017-12-20T12:35:01.397Z,10.85
2017-12-20T12:37:29.719Z,10.93
2017-12-20T12:39:58.965Z,12.13
2017-12-20T12:42:27.428Z,12.90
2017-12-20T12:44:55.778Z,10.67
2017-12-20T12:47:24.116Z,12.57
2017-12-20T12:49:52.475Z,14.20
2017-12-20T12:52:20.821Z,13.35
2017-12-20T12:54:49.199Z,12.90
2017-12-20T12:57:17.526Z,12.93
2017-12-20T12:59:45.861Z,14.53
2017-12-20T13:02:14.206Z,14.18
2017-12-20T13:04:42.543Z,13.40
2017-12-20T13:07:10.897Z,15.88
2017-12-20T13:09:39.222Z,13.90
2017-12-20T13:12:07.578Z,13.43
2017-12-20T13:14:35.915Z,13.50
2017-12-20T13:17:05.078Z,15.60
2017-12-20T13:19:33.421Z,14.13
2017-12-20T13:22:02.475Z,15.73
2017-12-20T13:24:30.797Z,13.82
2017-12-20T13:26:59.667Z,13.80
2017-12-20T13:29:27.990Z,14.70
2017-12-20T13:31:56.346Z,15.60
2017-12-20T13:34:24.684Z,16.00
2017-12-20T13:36:53.042Z,14.57
2017-12-20T13:39:21.370Z,14.63
2017-12-20T13:41:49.722Z,16.33
2017-12-20T13:44:18.049Z,15.00
2017-12-20T13:46:47.411Z,15.77
2017-12-20T13:49:15.758Z,14.10
2017-12-20T13:51:44.210Z,16.27
2017-12-20T13:54:12.631Z,14.10
2017-12-20T13:56:40.978Z,15.43
2017-12-20T13:59:09.387Z,13.75
2017-12-20T14:01:37.797Z,14.15
2017-12-20T14:04:06.310Z,14.32
2017-12-20T14:06:35.402Z,12.30
2017-12-20T14:09:03.739Z,14.52
2017-12-20T14:11:33.023Z,14.98
2017-12-20T14:14:01.401Z,15.00
2017-12-20T14:16:29.750Z,15.25
2017-12-20T14:18:58.154Z,14.63
2017-12-20T14:21:26.535Z,14.57
2017-12-20T14:23:56.008Z,15.90
2017-12-20T14:26:24.557Z,14.47
2017-12-20T14:28:53.575Z,13.55
2017-12-20T14:31:22.935Z,14.18
2017-12-20T14:33:51.541Z,15.43
2017-12-20T14:36:19.894Z,14.47
2017-12-20T14:38:48.250Z,34.20
2017-12-20T14:41:16.979Z,17.87
2017-12-20T14:43:45.450Z,29.67
2017-12-20T14:46:13.911Z,17.93
2017-12-20T14:48:42.264Z,15.27
2017-12-20T14:51:10.595Z,15.17
2017-12-20T14:53:38.942Z,15.27
2017-12-20T14:56:07.295Z,15.10
2017-12-20T14:58:35.649Z,13.93
2017-12-20T15:01:03.981Z,14.47
2017-12-20T15:03:32.387Z,16.20
2017-12-20T15:06:00.728Z,17.00
2017-12-20T15:08:29.149Z,15.07
2017-12-20T15:10:57.482Z,14.50
2017-12-20T15:13:25.859Z,15.70
2017-12-20T15:15:54.231Z,15.90
2017-12-20T15:18:22.618Z,15.70
2017-12-20T15:20:50.959Z,14.57
2017-12-20T15:23:19.314Z,14.23
2017-12-20T15:25:48.754Z,15.30
2017-12-20T15:28:18.021Z,13.73
2017-12-20T15:30:47.135Z,13.47
2017-12-20T15:33:15.543Z,13.87
2017-12-20T15:35:43.882Z,12.60
2017-12-20T15:38:12.236Z,12.43
2017-12-20T15:40:40.608Z,14.03
2017-12-20T15:43:08.968Z,12.65
2017-12-20T15:45:37.295Z,13.13
2017-12-20T15:48:05.646Z,12.80
2017-12-20T15:50:34.037Z,14.67
2017-12-20T15:53:02.418Z,15.25
2017-12-20T15:55:30.793Z,13.43
2017-12-20T15:57:59.142Z,11.25
2017-12-20T16:00:29.658Z,13.62
2017-12-20T16:02:58.038Z,12.55
2017-12-20T16:05:26.371Z,13.30
2017-12-20T16:07:54.747Z,12.82
2017-12-20T16:10:23.861Z,13.30
2017-12-20T16:12:52.214Z,13.80
2017-12-20T16:15:20.550Z,12.82
2017-12-20T16:17:48.893Z,11.87
2017-12-20T16:20:17.243Z,15.00
2017-12-20T16:22:45.588Z,13.30
2017-12-20T16:25:13.910Z,14.30
2017-12-20T16:27:42.242Z,13.47
2017-12-20T16:30:10.590Z,27.00
2017-12-20T16:32:38.922Z,14.20
2017-12-20T16:35:07.278Z,13.90
2017-12-20T16:37:35.615Z,12.37
2017-12-20T16:40:03.981Z,13.93
2017-12-20T16:42:32.314Z,11.27
2017-12-20T16:45:00.799Z,13.90
2017-12-20T16:47:29.130Z,12.75
2017-12-20T16:49:57.478Z,12.80
2017-12-20T16:52:25.802Z,12.03
2017-12-20T16:54:54.150Z,12.27
2017-12-20T16:57:22.478Z,11.03
2017-12-20T16:59:50.826Z,12.77
2017-12-20T17:02:19.451Z,12.37
2017-12-20T17:04:47.888Z,12.10
2017-12-20T17:07:16.210Z,12.80
2017-12-20T17:09:44.566Z,12.98
2017-12-20T17:12:12.902Z,13.30
2017-12-20T17:14:41.263Z,14.43
2017-12-20T17:17:09.598Z,12.90
2017-12-20T17:19:37.950Z,14.07
2017-12-20T17:22:06.287Z,13.03
2017-12-20T17:24:34.641Z,12.68
2017-12-20T17:27:02.974Z,16.97
2017-12-20T17:29:31.329Z,15.97
2017-12-20T17:31:59.661Z,14.23
2017-12-20T17:34:28.025Z,13.83
2017-12-20T17:36:56.362Z,12.47
2017-12-20T17:39:24.723Z,11.80
2017-12-20T17:41:53.074Z,15.53
2017-12-20T17:44:21.436Z,12.67
2017-12-20T17:46:49.758Z,12.20
2017-12-20T17:49:18.839Z,11.73
2017-12-20T17:51:47.170Z,11.27
2017-12-20T17:54:15.531Z,10.53
2017-12-20T17:56:43.858Z,11.40
2017-12-20T17:59:12.198Z,11.30
2017-12-20T18:01:40.525Z,12.20
2017-12-20T18:04:08.879Z,11.93
2017-12-20T18:06:37.214Z,10.27
2017-12-20T18:09:06.434Z,10.20
2017-12-20T18:11:34.762Z,10.17
2017-12-20T18:14:03.124Z,10.63
2017-12-20T18:16:31.554Z,9.90
2017-12-20T18:18:59.883Z,12.40
2017-12-20T18:21:28.227Z,11.90
2017-12-20T18:23:56.580Z,12.27
2017-12-20T18:26:24.902Z,13.00
2017-12-20T18:28:54.086Z,13.60
2017-12-20T18:31:22.418Z,12.63
2017-12-20T18:33:50.807Z,12.33
2017-12-20T18:36:19.292Z,16.43
2017-12-20T18:38:47.652Z,14.33
2017-12-20T18:41:16.010Z,13.77
2017-12-20T18:43:44.344Z,15.27
2017-12-20T18:46:12.698Z,15.37
2017-12-20T18:48:41.107Z,15.43
2017-12-20T18:51:09.490Z,14.18
2017-12-20T18:53:37.829Z,14.77
2017-12-20T18:56:07.198Z,12.90
2017-12-20T18:58:35.533Z,15.40
2017-12-20T19:01:03.887Z,13.03
2017-12-20T19:03:32.221Z,14.57
2017-12-20T19:06:00.585Z,14.35
2017-12-20T19:08:28.920Z,15.90
2017-12-20T19:10:57.279Z,15.20
2017-12-20T19:13:25.610Z,15.97
2017-12-20T19:15:53.970Z,14.63
2017-12-20T19:18:22.316Z,15.60
2017-12-20T19:20:50.665Z,16.57
2017-12-20T19:23:18.993Z,14.73
2017-12-20T19:25:49.086Z,15.40
2017-12-20T19:28:17.445Z,15.67
2017-12-20T19:30:45.778Z,14.90
2017-12-20T19:33:14.114Z,16.63
2017-12-20T19:35:43.448Z,17.40
2017-12-20T19:38:11.783Z,18.20
2017-12-20T19:40:40.135Z,18.17
2017-12-20T19:43:08.474Z,18.08
2017-12-20T19:45:36.874Z,20.20
2017-12-20T19:48:05.211Z,19.17
2017-12-20T19:50:33.558Z,18.13
2017-12-20T19:53:01.996Z,17.03
2017-12-20T19:55:30.491Z,18.87
2017-12-20T19:57:58.834Z,17.67
2017-12-20T20:00:27.221Z,19.05
2017-12-20T20:02:55.566Z,19.60
2017-12-20T20:05:23.967Z,19.15
2017-12-20T20:07:52.320Z,23.63
2017-12-20T20:10:20.692Z,21.40
2017-12-20T20:12:49.025Z,22.63
2017-12-20T20:15:17.378Z,20.30
2017-12-20T20:17:46.338Z,21.40
2017-12-20T20:20:14.690Z,19.70
2017-12-20T20:22:43.067Z,20.48
2017-12-20T20:25:12.278Z,21.90
2017-12-20T20:27:40.740Z,22.57
2017-12-20T20:30:09.978Z,20.48
2017-12-20T20:32:38.306Z,20.70
2017-12-20T20:35:06.683Z,23.30
2017-12-20T20:37:35.011Z,20.48
2017-12-20T20:40:03.350Z,20.25
2017-12-20T20:42:31.713Z,21.53
2017-12-20T20:45:00.047Z,20.80
2017-12-20T20:47:28.409Z,20.90
2017-12-20T20:49:59.742Z,19.90
2017-12-20T20:52:31.126Z,19.43
2017-12-20T20:54:59.458Z,20.73
2017-12-20T20:57:27.816Z,18.57
2017-12-20T20:59:56.151Z,18.08
2017-12-20T21:02:24.506Z,19.00
2017-12-20T21:04:52.838Z,20.03
2017-12-20T21:07:21.210Z,18.35
2017-12-20T21:09:49.530Z,17.83
2017-12-20T21:12:18.015Z,17.50
2017-12-20T21:14:47.396Z,17.87
2017-12-20T21:17:15.802Z,16.53
2017-12-20T21:19:44.744Z,18.30
2017-12-20T21:22:13.134Z,16.13
2017-12-20T21:24:41.674Z,17.30
2017-12-20T21:27:10.239Z,16.10
2017-12-20T21:29:38.698Z,19.35
2017-12-20T21:32:07.066Z,17.23
2017-12-20T21:34:35.405Z,16.93
2017-12-20T21:37:03.935Z,17.90
2017-12-20T21:39:32.363Z,16.00
2017-12-20T21:42:00.779Z,16.15
2017-12-20T21:44:29.115Z,15.93
2017-12-20T21:46:57.472Z,15.37
2017-12-20T21:49:25.802Z,16.50
2017-12-20T21:51:54.163Z,16.10
2017-12-20T21:54:22.541Z,15.63
2017-12-20T21:56:50.900Z,13.90
2017-12-20T21:59:19.237Z,14.20
2017-12-20T22:01:47.590Z,15.93
2017-12-20T22:04:15.979Z,14.38
2017-12-20T22:06:44.324Z,15.17
2017-12-20T22:09:12.661Z,15.40
2017-12-20T22:11:41.042Z,14.70
2017-12-20T22:14:09.379Z,16.10
2017-12-20T22:16:37.806Z,15.10
2017-12-20T22:19:06.229Z,15.17
2017-12-20T22:21:34.595Z,15.20
2017-12-20T22:24:02.926Z,15.90
2017-12-20T22:26:31.283Z,15.35
2017-12-20T22:28:59.619Z,14.90
2017-12-20T22:31:28.549Z,13.45
2017-12-20T22:33:56.883Z,16.33
2017-12-20T22:36:25.233Z,14.83
2017-12-20T22:38:53.569Z,16.62
2017-12-20T22:41:22.659Z,13.37
2017-12-20T22:43:51.051Z,15.52
2017-12-20T22:46:19.438Z,15.30
2017-12-20T22:48:47.778Z,14.47
2017-12-20T22:51:16.110Z,14.55
2017-12-20T22:53:44.471Z,14.77
2017-12-20T22:56:12.801Z,14.30
2017-12-20T22:58:41.160Z,15.83
2017-12-20T23:01:09.496Z,15.87
2017-12-20T23:03:37.843Z,15.10
2017-12-20T23:06:07.158Z,15.43
2017-12-20T23:08:35.510Z,15.20
2017-12-20T23:11:03.851Z,17.17
2017-12-20T23:13:32.265Z,17.30
2017-12-20T23:16:00.598Z,14.73
2017-12-20T23:21:08.406Z,15.87
2017-12-20T23:23:36.821Z,16.50
2017-12-20T23:26:05.159Z,15.27
2017-12-20T23:28:33.514Z,14.93
2017-12-20T23:31:01.849Z,16.08
2017-12-20T23:33:30.201Z,15.07
2017-12-20T23:35:58.539Z,16.43
2017-12-20T23:38:27.835Z,15.82
2017-12-20T23:40:56.399Z,15.83
2017-12-20T23:43:25.066Z,15.30
2017-12-20T23:45:55.307Z,16.53
2017-12-20T23:48:23.662Z,14.40
2017-12-20T23:50:51.998Z,15.95
2017-12-20T23:53:20.354Z,15.07
2017-12-20T23:55:48.681Z,15.77
2017-12-20T23:58:17.035Z,14.27
